PAL455 RPLL-RPMR
Flight info
| Callsign | PAL455 |
|---|---|
| Flight time | N/A |
| Altitude | 41000 |
| Route | VERDE2R VERDE A461 SAJ W3 IOO B472 COT W19 MELBY MELBY3P |
| Aircraft | A35K/H-SDE2E3GHIJ3J4J5LM1ORWXY/LB1D1 |
Departure
| Time | N/A |
|---|---|
| Airport | Ninoy Aquino International Airport (RPLL) |
Arrival
| Time | 2026-04-29 15:10 |
|---|---|
| Airport | General Santos International Airport (RPMR) |
| Time | Latitude | Longitude | Altitude | Speed | Heading |
|---|---|---|---|---|---|
| 2026-04-29 14:09 | 11.89311 | 121.48938 | 34599 ft | 494 kts | 137° |
| 2026-04-29 14:09 | 11.86790 | 121.51341 | 34867 ft | 494 kts | 137° |
| 2026-04-29 14:10 | 11.84264 | 121.53748 | 35149 ft | 493 kts | 137° |
| 2026-04-29 14:10 | 11.81782 | 121.56112 | 35447 ft | 493 kts | 137° |
| 2026-04-29 14:10 | 11.79270 | 121.58503 | 35743 ft | 492 kts | 137° |
| 2026-04-29 14:10 | 11.76760 | 121.60893 | 36033 ft | 492 kts | 137° |
| 2026-04-29 14:11 | 11.74282 | 121.63251 | 36328 ft | 491 kts | 137° |
| 2026-04-29 14:11 | 11.71773 | 121.65639 | 36620 ft | 491 kts | 137° |
| 2026-04-29 14:11 | 11.69269 | 121.68020 | 36919 ft | 491 kts | 137° |
| 2026-04-29 14:11 | 11.66767 | 121.70399 | 37221 ft | 490 kts | 137° |
| 2026-04-29 14:12 | 11.64296 | 121.72754 | 37528 ft | 490 kts | 137° |
| 2026-04-29 14:12 | 11.61807 | 121.75126 | 37813 ft | 489 kts | 137° |
| 2026-04-29 14:12 | 11.59305 | 121.77502 | 38089 ft | 489 kts | 137° |
| 2026-04-29 14:12 | 11.56810 | 121.79869 | 38361 ft | 489 kts | 137° |
| 2026-04-29 14:13 | 11.54319 | 121.82232 | 38633 ft | 489 kts | 137° |
| 2026-04-29 14:13 | 11.51822 | 121.84601 | 38838 ft | 490 kts | 137° |
| 2026-04-29 14:13 | 11.49356 | 121.86941 | 39028 ft | 490 kts | 137° |
| 2026-04-29 14:13 | 11.46858 | 121.89312 | 39226 ft | 491 kts | 137° |
| 2026-04-29 14:14 | 11.44355 | 121.91688 | 39418 ft | 491 kts | 137° |
| 2026-04-29 14:14 | 11.41838 | 121.94075 | 39619 ft | 492 kts | 137° |
| 2026-04-29 14:14 | 11.39332 | 121.96452 | 39812 ft | 492 kts | 137° |
| 2026-04-29 14:14 | 11.36861 | 121.98795 | 40005 ft | 492 kts | 137° |
| 2026-04-29 14:15 | 11.34338 | 122.01187 | 40211 ft | 492 kts | 137° |
| 2026-04-29 14:15 | 11.31818 | 122.03575 | 40381 ft | 492 kts | 137° |
| 2026-04-29 14:15 | 11.29337 | 122.05926 | 40573 ft | 492 kts | 137° |
| 2026-04-29 14:15 | 11.26832 | 122.08299 | 40746 ft | 492 kts | 137° |
| 2026-04-29 14:16 | 11.24308 | 122.10690 | 40917 ft | 493 kts | 137° |
| 2026-04-29 14:16 | 11.21811 | 122.13054 | 40960 ft | 493 kts | 137° |
| 2026-04-29 14:16 | 11.16765 | 122.17829 | 40969 ft | 492 kts | 137° |
| 2026-04-29 14:17 | 11.11777 | 122.22548 | 40970 ft | 493 kts | 137° |
| 2026-04-29 14:17 | 11.06756 | 122.27295 | 40972 ft | 492 kts | 137° |
| 2026-04-29 14:18 | 11.01718 | 122.32065 | 40969 ft | 492 kts | 137° |
| 2026-04-29 14:18 | 10.96719 | 122.36779 | 40967 ft | 492 kts | 137° |
| 2026-04-29 14:19 | 10.91688 | 122.41521 | 40966 ft | 491 kts | 136° |
| 2026-04-29 14:19 | 10.86695 | 122.46226 | 40965 ft | 491 kts | 136° |
| 2026-04-29 14:20 | 10.81125 | 122.50261 | 40959 ft | 491 kts | 152° |
| 2026-04-29 14:20 | 10.75012 | 122.53328 | 40949 ft | 492 kts | 154° |
| 2026-04-29 14:21 | 10.68796 | 122.56238 | 40951 ft | 492 kts | 155° |
| 2026-04-29 14:21 | 10.62553 | 122.59148 | 40942 ft | 492 kts | 155° |
| 2026-04-29 14:22 | 10.56332 | 122.62074 | 40937 ft | 492 kts | 154° |
| 2026-04-29 14:22 | 10.50138 | 122.65000 | 40941 ft | 492 kts | 154° |
| 2026-04-29 14:23 | 10.43961 | 122.67921 | 40938 ft | 492 kts | 154° |
| 2026-04-29 14:23 | 10.37721 | 122.70869 | 40940 ft | 492 kts | 154° |
| 2026-04-29 14:24 | 10.31538 | 122.73795 | 40941 ft | 491 kts | 154° |
| 2026-04-29 14:24 | 10.25344 | 122.76712 | 40939 ft | 491 kts | 154° |
| 2026-04-29 14:25 | 10.19147 | 122.79630 | 40940 ft | 490 kts | 154° |
| 2026-04-29 14:25 | 10.12988 | 122.82538 | 40944 ft | 490 kts | 154° |
| 2026-04-29 14:26 | 10.06785 | 122.85458 | 40952 ft | 490 kts | 154° |
| 2026-04-29 14:26 | 10.00616 | 122.88359 | 40952 ft | 490 kts | 154° |
| 2026-04-29 14:27 | 9.94446 | 122.91261 | 40954 ft | 490 kts | 154° |
| 2026-04-29 14:28 | 9.85164 | 122.95628 | 40956 ft | 490 kts | 154° |
| 2026-04-29 14:28 | 9.78950 | 122.98551 | 40957 ft | 490 kts | 154° |
| 2026-04-29 14:29 | 9.72806 | 123.01446 | 40956 ft | 490 kts | 154° |
| 2026-04-29 14:29 | 9.66588 | 123.04363 | 40955 ft | 491 kts | 154° |
| 2026-04-29 14:30 | 9.60410 | 123.07262 | 40956 ft | 491 kts | 154° |
| 2026-04-29 14:30 | 9.54200 | 123.10178 | 40955 ft | 490 kts | 154° |
| 2026-04-29 14:31 | 9.48012 | 123.13081 | 40957 ft | 490 kts | 154° |
| 2026-04-29 14:31 | 9.41811 | 123.15990 | 40953 ft | 490 kts | 154° |
| 2026-04-29 14:32 | 9.35658 | 123.18878 | 40953 ft | 490 kts | 154° |
| 2026-04-29 14:32 | 9.29441 | 123.21794 | 40954 ft | 489 kts | 154° |
| 2026-04-29 14:33 | 9.24326 | 123.24191 | 40947 ft | 489 kts | 154° |
| 2026-04-29 14:33 | 9.17113 | 123.27570 | 40948 ft | 488 kts | 154° |
| 2026-04-29 14:34 | 9.10965 | 123.30450 | 40944 ft | 488 kts | 154° |
| 2026-04-29 14:34 | 9.04814 | 123.33339 | 40942 ft | 488 kts | 154° |
| 2026-04-29 14:35 | 8.98630 | 123.36228 | 40942 ft | 487 kts | 154° |
| 2026-04-29 14:35 | 8.92497 | 123.39092 | 40943 ft | 487 kts | 154° |
| 2026-04-29 14:36 | 8.86360 | 123.41962 | 40941 ft | 486 kts | 154° |
| 2026-04-29 14:36 | 8.81229 | 123.44361 | 40939 ft | 486 kts | 154° |
| 2026-04-29 14:37 | 8.74079 | 123.47705 | 40946 ft | 486 kts | 154° |
| 2026-04-29 14:37 | 8.68973 | 123.50092 | 40950 ft | 486 kts | 154° |
| 2026-04-29 14:38 | 8.62809 | 123.52971 | 40952 ft | 485 kts | 154° |
| 2026-04-29 14:38 | 8.56709 | 123.55818 | 40952 ft | 485 kts | 154° |
| 2026-04-29 14:39 | 8.50559 | 123.58689 | 40954 ft | 485 kts | 154° |
| 2026-04-29 14:39 | 8.44458 | 123.61535 | 40957 ft | 485 kts | 153° |
| 2026-04-29 14:40 | 8.38318 | 123.64399 | 40956 ft | 484 kts | 153° |
| 2026-04-29 14:40 | 8.32216 | 123.67246 | 40960 ft | 484 kts | 153° |
| 2026-04-29 14:41 | 8.26090 | 123.70101 | 40958 ft | 484 kts | 153° |
| 2026-04-29 14:41 | 8.19985 | 123.72946 | 40954 ft | 484 kts | 154° |
| 2026-04-29 14:42 | 8.13879 | 123.75789 | 40955 ft | 484 kts | 154° |
| 2026-04-29 14:42 | 8.07772 | 123.78633 | 40956 ft | 484 kts | 154° |
| 2026-04-29 14:43 | 8.01624 | 123.81494 | 40954 ft | 484 kts | 154° |
| 2026-04-29 14:43 | 7.95524 | 123.84333 | 40949 ft | 485 kts | 153° |
| 2026-04-29 14:44 | 7.89384 | 123.87189 | 40951 ft | 485 kts | 154° |
| 2026-04-29 14:44 | 7.83242 | 123.90046 | 40947 ft | 485 kts | 153° |
| 2026-04-29 14:45 | 7.77147 | 123.92878 | 40948 ft | 485 kts | 153° |
| 2026-04-29 14:45 | 7.71037 | 123.95718 | 40945 ft | 485 kts | 153° |
| 2026-04-29 14:46 | 7.64902 | 123.98568 | 40941 ft | 485 kts | 153° |
| 2026-04-29 14:46 | 7.58801 | 124.01401 | 40936 ft | 485 kts | 154° |
| 2026-04-29 14:47 | 7.52665 | 124.04250 | 40930 ft | 484 kts | 153° |
| 2026-04-29 14:47 | 7.46572 | 124.07078 | 40931 ft | 484 kts | 154° |
| 2026-04-29 14:48 | 7.40440 | 124.09923 | 40673 ft | 483 kts | 153° |
| 2026-04-29 14:48 | 7.37384 | 124.11341 | 40114 ft | 480 kts | 153° |
| 2026-04-29 14:48 | 7.34361 | 124.12741 | 39167 ft | 474 kts | 153° |
| 2026-04-29 14:48 | 7.31387 | 124.14118 | 38510 ft | 464 kts | 153° |
| 2026-04-29 14:49 | 7.28469 | 124.15472 | 37860 ft | 468 kts | 153° |
| 2026-04-29 14:49 | 7.25513 | 124.16844 | 37215 ft | 468 kts | 153° |
| 2026-04-29 14:49 | 7.22554 | 124.18216 | 36587 ft | 468 kts | 153° |
| 2026-04-29 14:49 | 7.19579 | 124.19597 | 35954 ft | 469 kts | 153° |
| 2026-04-29 14:50 | 7.16732 | 124.21137 | 35247 ft | 469 kts | 144° |
| 2026-04-29 14:50 | 7.14087 | 124.23105 | 34420 ft | 474 kts | 140° |
| 2026-04-29 14:50 | 7.11494 | 124.25178 | 33570 ft | 479 kts | 140° |
| 2026-04-29 14:50 | 7.08890 | 124.27283 | 32752 ft | 482 kts | 140° |
| 2026-04-29 14:51 | 7.06260 | 124.29412 | 31937 ft | 485 kts | 140° |
| 2026-04-29 14:51 | 7.03649 | 124.31526 | 31115 ft | 488 kts | 140° |
| 2026-04-29 14:51 | 7.00976 | 124.33692 | 30252 ft | 492 kts | 140° |
| 2026-04-29 14:51 | 6.98320 | 124.35843 | 29285 ft | 496 kts | 140° |
| 2026-04-29 14:52 | 6.95619 | 124.38029 | 28471 ft | 496 kts | 140° |
| 2026-04-29 14:52 | 6.92933 | 124.40203 | 27851 ft | 491 kts | 140° |
| 2026-04-29 14:52 | 6.90271 | 124.42357 | 27229 ft | 488 kts | 140° |
| 2026-04-29 14:52 | 6.87663 | 124.44468 | 26608 ft | 484 kts | 140° |
| 2026-04-29 14:53 | 6.85042 | 124.46589 | 25980 ft | 480 kts | 140° |
| 2026-04-29 14:53 | 6.82445 | 124.48691 | 25363 ft | 477 kts | 139° |
| 2026-04-29 14:53 | 6.79855 | 124.50787 | 24745 ft | 474 kts | 139° |
| 2026-04-29 14:53 | 6.77292 | 124.52860 | 24130 ft | 470 kts | 139° |
| 2026-04-29 14:54 | 6.74785 | 124.54888 | 23524 ft | 467 kts | 139° |
| 2026-04-29 14:54 | 6.72262 | 124.56929 | 22832 ft | 463 kts | 139° |
| 2026-04-29 14:54 | 6.69764 | 124.58949 | 22214 ft | 457 kts | 139° |
| 2026-04-29 14:54 | 6.67292 | 124.60949 | 21606 ft | 452 kts | 139° |
| 2026-04-29 14:55 | 6.64839 | 124.62903 | 20995 ft | 447 kts | 141° |
| 2026-04-29 14:55 | 6.62353 | 124.64779 | 20368 ft | 443 kts | 141° |
| 2026-04-29 14:55 | 6.59916 | 124.66604 | 19771 ft | 439 kts | 141° |
| 2026-04-29 14:55 | 6.57465 | 124.68448 | 19159 ft | 436 kts | 141° |
| 2026-04-29 14:56 | 6.55035 | 124.70282 | 18545 ft | 433 kts | 141° |
| 2026-04-29 14:56 | 6.52660 | 124.72077 | 17914 ft | 430 kts | 141° |
| 2026-04-29 14:56 | 6.50265 | 124.73890 | 17254 ft | 426 kts | 141° |
| 2026-04-29 14:56 | 6.47922 | 124.75666 | 16655 ft | 422 kts | 141° |
| 2026-04-29 14:57 | 6.45586 | 124.77437 | 16050 ft | 417 kts | 141° |
| 2026-04-29 14:57 | 6.43278 | 124.79188 | 15438 ft | 413 kts | 141° |
| 2026-04-29 14:57 | 6.40989 | 124.80923 | 14831 ft | 409 kts | 141° |
| 2026-04-29 14:57 | 6.38839 | 124.82722 | 14213 ft | 404 kts | 133° |
| 2026-04-29 14:58 | 6.37074 | 124.84902 | 13575 ft | 399 kts | 124° |
| 2026-04-29 14:58 | 6.35476 | 124.87198 | 12934 ft | 394 kts | 123° |
| 2026-04-29 14:58 | 6.33930 | 124.89450 | 12338 ft | 390 kts | 123° |
| 2026-04-29 14:58 | 6.32404 | 124.91664 | 11744 ft | 385 kts | 123° |
| 2026-04-29 14:59 | 6.30862 | 124.93863 | 11098 ft | 384 kts | 125° |
| 2026-04-29 14:59 | 6.29193 | 124.95943 | 10783 ft | 373 kts | 128° |
| 2026-04-29 14:59 | 6.27576 | 124.97868 | 10669 ft | 356 kts | 128° |
| 2026-04-29 14:59 | 6.26008 | 124.99729 | 10536 ft | 341 kts | 128° |
| 2026-04-29 15:00 | 6.24505 | 125.01515 | 10423 ft | 327 kts | 128° |
| 2026-04-29 15:00 | 6.23067 | 125.03224 | 10288 ft | 314 kts | 128° |
| 2026-04-29 15:00 | 6.21698 | 125.04853 | 10180 ft | 302 kts | 128° |
| 2026-04-29 15:00 | 6.20363 | 125.06440 | 10053 ft | 290 kts | 128° |
| 2026-04-29 15:01 | 6.19064 | 125.07988 | 9808 ft | 291 kts | 128° |
| 2026-04-29 15:01 | 6.17758 | 125.09548 | 9464 ft | 296 kts | 128° |
| 2026-04-29 15:01 | 6.16426 | 125.11134 | 9125 ft | 296 kts | 128° |
| 2026-04-29 15:01 | 6.15098 | 125.12712 | 8784 ft | 295 kts | 128° |
| 2026-04-29 15:02 | 6.13793 | 125.14263 | 8469 ft | 293 kts | 128° |
| 2026-04-29 15:02 | 6.12477 | 125.15829 | 8148 ft | 292 kts | 128° |
| 2026-04-29 15:02 | 6.11116 | 125.17353 | 7809 ft | 293 kts | 135° |
| 2026-04-29 15:02 | 6.09368 | 125.18399 | 7473 ft | 295 kts | 162° |
| 2026-04-29 15:03 | 6.07377 | 125.18775 | 7145 ft | 294 kts | 172° |
| 2026-04-29 15:03 | 6.05332 | 125.19002 | 6816 ft | 294 kts | 173° |
| 2026-04-29 15:03 | 6.03296 | 125.19226 | 6477 ft | 293 kts | 173° |
| 2026-04-29 15:03 | 6.01294 | 125.19456 | 6132 ft | 291 kts | 172° |
| 2026-04-29 15:04 | 5.99276 | 125.19693 | 5797 ft | 290 kts | 172° |
| 2026-04-29 15:04 | 5.97275 | 125.19931 | 5458 ft | 289 kts | 172° |
| 2026-04-29 15:04 | 5.95282 | 125.20172 | 5135 ft | 287 kts | 172° |
| 2026-04-29 15:04 | 5.93295 | 125.20413 | 4799 ft | 286 kts | 171° |
| 2026-04-29 15:05 | 5.91333 | 125.20498 | 4459 ft | 286 kts | 185° |
| 2026-04-29 15:05 | 5.89487 | 125.19820 | 4123 ft | 282 kts | 216° |
| 2026-04-29 15:05 | 5.88241 | 125.18360 | 3937 ft | 272 kts | 245° |
| 2026-04-29 15:05 | 5.87743 | 125.16575 | 3847 ft | 259 kts | 263° |
| 2026-04-29 15:06 | 5.87541 | 125.14806 | 3711 ft | 249 kts | 267° |
| 2026-04-29 15:06 | 5.87758 | 125.13158 | 3584 ft | 235 kts | 295° |
| 2026-04-29 15:06 | 5.88752 | 125.11956 | 3488 ft | 218 kts | 328° |
| 2026-04-29 15:06 | 5.90120 | 125.11477 | 3405 ft | 201 kts | 352° |
| 2026-04-29 15:07 | 5.91475 | 125.11354 | 3271 ft | 190 kts | 357° |
| 2026-04-29 15:07 | 5.92753 | 125.11234 | 2985 ft | 178 kts | 353° |
| 2026-04-29 15:07 | 5.93941 | 125.11078 | 2713 ft | 169 kts | 353° |
| 2026-04-29 15:07 | 5.95077 | 125.10941 | 2464 ft | 159 kts | 353° |
| 2026-04-29 15:08 | 5.96140 | 125.10811 | 2252 ft | 151 kts | 353° |
| 2026-04-29 15:08 | 5.97162 | 125.10685 | 2035 ft | 146 kts | 353° |
| 2026-04-29 15:08 | 5.98170 | 125.10561 | 1825 ft | 145 kts | 353° |
| 2026-04-29 15:08 | 5.99176 | 125.10437 | 1609 ft | 145 kts | 353° |
| 2026-04-29 15:09 | 6.00169 | 125.10314 | 1399 ft | 145 kts | 353° |
| 2026-04-29 15:09 | 6.01167 | 125.10191 | 1187 ft | 144 kts | 353° |
| 2026-04-29 15:09 | 6.02160 | 125.10073 | 955 ft | 144 kts | 353° |
| 2026-04-29 15:09 | 6.03149 | 125.09944 | 776 ft | 142 kts | 352° |
| 2026-04-29 15:10 | 6.04135 | 125.09823 | 582 ft | 143 kts | 354° |
| 2026-04-29 15:10 | 6.05080 | 125.09698 | 522 ft | 132 kts | 353° |
| 2026-04-29 15:10 | 6.05810 | 125.09617 | 520 ft | 67 kts | 353° |
| 2026-04-29 15:10 | 6.06064 | 125.09586 | 521 ft | 28 kts | 353° |
| 2026-04-29 15:11 | 6.06253 | 125.09564 | 522 ft | 28 kts | 353° |
| 2026-04-29 15:11 | 6.06446 | 125.09540 | 521 ft | 28 kts | 352° |
| 2026-04-29 15:11 | 6.06639 | 125.09516 | 522 ft | 28 kts | 353° |
| 2026-04-29 15:11 | 6.06833 | 125.09493 | 519 ft | 29 kts | 354° |
| 2026-04-29 15:12 | 6.07029 | 125.09470 | 518 ft | 26 kts | 353° |
| 2026-04-29 15:12 | 6.07069 | 125.09465 | 519 ft | 0 kts | 353° |
| 2026-04-29 15:12 | 6.07096 | 125.09466 | 519 ft | 5 kts | 14° |
| 2026-04-29 15:12 | 6.07122 | 125.09493 | 519 ft | 6 kts | 61° |
| 2026-04-29 15:13 | 6.07138 | 125.09543 | 519 ft | 9 kts | 77° |
| 2026-04-29 15:13 | 6.07155 | 125.09608 | 519 ft | 10 kts | 52° |
| 2026-04-29 15:13 | 6.07207 | 125.09613 | 519 ft | 9 kts | 355° |
| 2026-04-29 15:13 | 6.07258 | 125.09581 | 519 ft | 8 kts | 292° |
| 2026-04-29 15:14 | 6.07255 | 125.09521 | 518 ft | 11 kts | 264° |
| 2026-04-29 15:14 | 6.07227 | 125.09459 | 518 ft | 9 kts | 205° |
| 2026-04-29 15:14 | 6.07158 | 125.09453 | 518 ft | 11 kts | 176° |
| 2026-04-29 15:14 | 6.07072 | 125.09463 | 519 ft | 14 kts | 174° |
| 2026-04-29 15:15 | 6.06966 | 125.09476 | 518 ft | 17 kts | 173° |
| 2026-04-29 15:15 | 6.06841 | 125.09491 | 519 ft | 19 kts | 173° |
| 2026-04-29 15:15 | 6.06707 | 125.09508 | 521 ft | 20 kts | 173° |
| 2026-04-29 15:15 | 6.06565 | 125.09525 | 522 ft | 21 kts | 172° |
| 2026-04-29 15:16 | 6.06408 | 125.09545 | 521 ft | 24 kts | 172° |
| 2026-04-29 15:16 | 6.06243 | 125.09565 | 522 ft | 21 kts | 173° |
| 2026-04-29 15:16 | 6.06121 | 125.09580 | 521 ft | 19 kts | 173° |
| 2026-04-29 15:16 | 6.05983 | 125.09597 | 520 ft | 19 kts | 173° |
| 2026-04-29 15:17 | 6.05871 | 125.09611 | 520 ft | 13 kts | 173° |
| 2026-04-29 15:17 | 6.05821 | 125.09644 | 520 ft | 8 kts | 105° |
| 2026-04-29 15:17 | 6.05823 | 125.09708 | 520 ft | 10 kts | 83° |
| 2026-04-29 15:17 | 6.05829 | 125.09760 | 520 ft | 12 kts | 83° |
| 2026-04-29 15:18 | 6.05833 | 125.09847 | 518 ft | 3 kts | 115° |
| 2026-04-29 15:18 | 6.05813 | 125.09867 | 520 ft | 5 kts | 146° |
| 2026-04-29 15:18 | 6.05776 | 125.09877 | 520 ft | 5 kts | 149° |
| 2026-04-29 15:18 | 6.05774 | 125.09901 | 520 ft | 4 kts | 82° |
| 2026-04-29 15:19 | 6.05778 | 125.09931 | 521 ft | 0 kts | 82° |
| 2026-04-29 15:19 | 6.05778 | 125.09936 | 522 ft | 2 kts | 82° |
| 2026-04-29 15:19 | 6.05779 | 125.09939 | 522 ft | 0 kts | 82° |